Roanoke Rapids Air Force Sta, North Carolina
Current Conditions -  °F | °C
As of 8:55 AM on Monday 24 Nov 2014 (Local Time) from KIXA Reporting Station
Scattered Clouds Scattered Clouds  
Wind Chill: 64°   Ceiling: Unl
Heat Index: 64°   Visibility: 10mi
Dew Point: 61°   Wind: 15mph
Humidity: 88%   Direction: 210°SSW
Pressure: 29.83"   Gusts: 21mph
Location:  36.4196°N, 77.714°W
Report Text: KIXA 241355Z AUTO 21013G18KT 10SM SCT016 18/16 A2983 RMK AO2
Loading
Personal Weather Stations






























Interactive Weather Map New forecast layout! Learn more

10-Day Weather Forecast

Advertisements
Track Severe Weather on mobile